Eagle County Regional Airport Eagle US
ICAO: KEGE
IATA: EGE
Category: Medium
Scheduled Services: Yes

Elevation: 6548 ft
TransAlt. 18000 ft.

Airport Communications:
ATIS:135.575
AWOS 3:135.575
DENVER CNTR:128.65
CTAF:119.8
GND/CLNC DEL:121.8
EAGLES NEST:41.75
DENVER RDO:122.2
TWR:119.8

KEGE Zoom In..

If you have problems with the map follow the link
https://www.worldairports.se/pages/airport.php?
ICAO=KEGE

Runways:

(A) RW 07 length 9000 ft width 150 ft
LOC 110.10 / hdg 69

(B) RW 25 length 9000 ft width 150 ft
LOC 110.10 / hdg 249

Location; KEGE
Day. 24 / Time. 10.56 Zulu
* Altimeter: 30.13
* Temperature: -01° c. -30.2°f.
* Wind from: 000° Speed 00 kn.
Dewpoint: -03° c.
Visibility: 10 Statute Miles.
Clouds: Overcast 6000 ft.

KEGE 241056Z AUTO 00000KT 10SM OVC060 M01/M03 A3013 RMK AO2 SLP214 T10061028 FZRANO


Wind - Calm.

 
 
jpsmedia.com for Web Design worldairports.se 2019   terms of use